sensor_id;sensor_type;location;lat;lon;timestamp;P1;durP1;ratioP1;P2;durP2;ratioP2
80681;SDS011;70045;40.200;44.582;2023-11-22T00:01:41;1.17;;;0.80;;
80681;SDS011;70045;40.200;44.582;2023-11-22T00:04:07;1.13;;;0.90;;
80681;SDS011;70045;40.200;44.582;2023-11-22T00:06:32;1.58;;;0.95;;
80681;SDS011;70045;40.200;44.582;2023-11-22T00:08:57;1.00;;;0.80;;
80681;SDS011;70045;40.200;44.582;2023-11-22T00:11:23;2.03;;;1.13;;
80681;SDS011;70045;40.200;44.582;2023-11-22T00:13:51;1.63;;;0.90;;
80681;SDS011;70045;40.200;44.582;2023-11-22T00:16:16;1.58;;;1.10;;
80681;SDS011;70045;40.200;44.582;2023-11-22T00:18:41;2.85;;;1.00;;
80681;SDS011;70045;40.200;44.582;2023-11-22T00:21:07;1.70;;;1.00;;
80681;SDS011;70045;40.200;44.582;2023-11-22T00:23:32;2.90;;;1.20;;
80681;SDS011;70045;40.200;44.582;2023-11-22T00:26:00;1.17;;;1.00;;
80681;SDS011;70045;40.200;44.582;2023-11-22T00:28:26;2.25;;;1.15;;
80681;SDS011;70045;40.200;44.582;2023-11-22T00:30:51;1.73;;;0.98;;
80681;SDS011;70045;40.200;44.582;2023-11-22T00:33:17;3.60;;;1.30;;
80681;SDS011;70045;40.200;44.582;2023-11-22T00:35:42;1.77;;;1.10;;
80681;SDS011;70045;40.200;44.582;2023-11-22T00:38:10;2.33;;;0.98;;
80681;SDS011;70045;40.200;44.582;2023-11-22T00:40:35;3.65;;;1.45;;
80681;SDS011;70045;40.200;44.582;2023-11-22T00:43:01;1.15;;;0.95;;
80681;SDS011;70045;40.200;44.582;2023-11-22T00:45:26;2.70;;;1.20;;
80681;SDS011;70045;40.200;44.582;2023-11-22T00:47:52;2.30;;;1.25;;
80681;SDS011;70045;40.200;44.582;2023-11-22T00:50:20;1.10;;;0.93;;
80681;SDS011;70045;40.200;44.582;2023-11-22T00:52:46;2.47;;;1.20;;
80681;SDS011;70045;40.200;44.582;2023-11-22T00:55:12;1.83;;;0.93;;
80681;SDS011;70045;40.200;44.582;2023-11-22T00:57:38;2.85;;;1.17;;
80681;SDS011;70045;40.200;44.582;2023-11-22T01:00:04;1.40;;;1.05;;
80681;SDS011;70045;40.200;44.582;2023-11-22T01:02:33;3.92;;;1.17;;
80681;SDS011;70045;40.200;44.582;2023-11-22T01:04:58;2.65;;;1.40;;
80681;SDS011;70045;40.200;44.582;2023-11-22T01:07:24;2.15;;;1.20;;
80681;SDS011;70045;40.200;44.582;2023-11-22T01:09:49;2.25;;;1.25;;
80681;SDS011;70045;40.200;44.582;2023-11-22T01:12:14;1.60;;;1.20;;
80681;SDS011;70045;40.200;44.582;2023-11-22T01:14:42;2.10;;;1.00;;
80681;SDS011;70045;40.200;44.582;2023-11-22T01:17:08;2.15;;;1.10;;
80681;SDS011;70045;40.200;44.582;2023-11-22T01:19:33;3.03;;;1.20;;
80681;SDS011;70045;40.200;44.582;2023-11-22T01:21:58;1.77;;;1.10;;
80681;SDS011;70045;40.200;44.582;2023-11-22T01:24:24;2.70;;;1.10;;
80681;SDS011;70045;40.200;44.582;2023-11-22T01:26:52;2.25;;;1.10;;
80681;SDS011;70045;40.200;44.582;2023-11-22T01:29:17;2.90;;;1.25;;
80681;SDS011;70045;40.200;44.582;2023-11-22T01:31:43;2.60;;;1.02;;
80681;SDS011;70045;40.200;44.582;2023-11-22T01:34:08;1.65;;;1.10;;
80681;SDS011;70045;40.200;44.582;2023-11-22T01:36:34;2.65;;;1.30;;
80681;SDS011;70045;40.200;44.582;2023-11-22T01:39:02;4.30;;;1.35;;
80681;SDS011;70045;40.200;44.582;2023-11-22T01:41:27;1.63;;;1.10;;
80681;SDS011;70045;40.200;44.582;2023-11-22T01:43:53;1.98;;;1.08;;
80681;SDS011;70045;40.200;44.582;2023-11-22T01:46:22;2.22;;;1.38;;
80681;SDS011;70045;40.200;44.582;2023-11-22T01:48:48;2.40;;;1.17;;
80681;SDS011;70045;40.200;44.582;2023-11-22T01:51:16;4.57;;;1.15;;
80681;SDS011;70045;40.200;44.582;2023-11-22T01:53:42;2.50;;;1.25;;
80681;SDS011;70045;40.200;44.582;2023-11-22T01:56:07;2.42;;;1.17;;
80681;SDS011;70045;40.200;44.582;2023-11-22T01:58:33;1.75;;;0.95;;
80681;SDS011;70045;40.200;44.582;2023-11-22T02:00:58;2.92;;;1.10;;
80681;SDS011;70045;40.200;44.582;2023-11-22T02:03:28;2.38;;;1.27;;
80681;SDS011;70045;40.200;44.582;2023-11-22T02:05:53;2.75;;;1.30;;
80681;SDS011;70045;40.200;44.582;2023-11-22T02:08:18;2.95;;;1.30;;
80681;SDS011;70045;40.200;44.582;2023-11-22T02:10:44;3.90;;;1.70;;
80681;SDS011;70045;40.200;44.582;2023-11-22T02:13:09;3.00;;;1.17;;
80681;SDS011;70045;40.200;44.582;2023-11-22T02:15:37;2.38;;;1.23;;
80681;SDS011;70045;40.200;44.582;2023-11-22T02:18:03;3.33;;;1.35;;
80681;SDS011;70045;40.200;44.582;2023-11-22T02:20:32;3.38;;;1.50;;
80681;SDS011;70045;40.200;44.582;2023-11-22T02:23:01;6.80;;;1.65;;
80681;SDS011;70045;40.200;44.582;2023-11-22T02:25:34;3.67;;;1.50;;
80681;SDS011;70045;40.200;44.582;2023-11-22T02:28:02;2.72;;;1.20;;
80681;SDS011;70045;40.200;44.582;2023-11-22T02:30:28;2.95;;;1.52;;
80681;SDS011;70045;40.200;44.582;2023-11-22T02:32:53;7.57;;;1.42;;
80681;SDS011;70045;40.200;44.582;2023-11-22T02:35:19;4.13;;;1.08;;
80681;SDS011;70045;40.200;44.582;2023-11-22T02:37:44;3.28;;;1.35;;
80681;SDS011;70045;40.200;44.582;2023-11-22T02:40:19;3.13;;;1.30;;
80681;SDS011;70045;40.200;44.582;2023-11-22T02:42:46;2.95;;;1.60;;
80681;SDS011;70045;40.200;44.582;2023-11-22T02:45:12;5.75;;;1.77;;
80681;SDS011;70045;40.200;44.582;2023-11-22T02:47:37;5.03;;;2.17;;
80681;SDS011;70045;40.200;44.582;2023-11-22T02:50:03;5.20;;;2.13;;
80681;SDS011;70045;40.200;44.582;2023-11-22T02:52:31;5.15;;;1.50;;
80681;SDS011;70045;40.200;44.582;2023-11-22T02:54:58;2.25;;;1.30;;
80681;SDS011;70045;40.200;44.582;2023-11-22T02:57:23;3.00;;;1.25;;
80681;SDS011;70045;40.200;44.582;2023-11-22T02:59:49;5.43;;;1.30;;
80681;SDS011;70045;40.200;44.582;2023-11-22T03:02:14;1.60;;;1.20;;
80681;SDS011;70045;40.200;44.582;2023-11-22T03:04:42;4.07;;;1.40;;
80681;SDS011;70045;40.200;44.582;2023-11-22T03:07:08;7.20;;;1.80;;
80681;SDS011;70045;40.200;44.582;2023-11-22T03:09:33;5.57;;;1.65;;
80681;SDS011;70045;40.200;44.582;2023-11-22T03:11:58;3.65;;;1.90;;
80681;SDS011;70045;40.200;44.582;2023-11-22T03:14:24;10.25;;;2.40;;
80681;SDS011;70045;40.200;44.582;2023-11-22T03:16:52;5.70;;;2.13;;
80681;SDS011;70045;40.200;44.582;2023-11-22T03:19:17;7.10;;;2.30;;
80681;SDS011;70045;40.200;44.582;2023-11-22T03:21:43;5.10;;;1.90;;
80681;SDS011;70045;40.200;44.582;2023-11-22T03:24:08;5.85;;;1.40;;
80681;SDS011;70045;40.200;44.582;2023-11-22T03:26:34;3.60;;;1.38;;
80681;SDS011;70045;40.200;44.582;2023-11-22T03:29:02;2.65;;;1.35;;
80681;SDS011;70045;40.200;44.582;2023-11-22T03:31:28;2.83;;;1.10;;
80681;SDS011;70045;40.200;44.582;2023-11-22T03:33:54;3.50;;;1.55;;
80681;SDS011;70045;40.200;44.582;2023-11-22T03:36:20;3.33;;;1.30;;
80681;SDS011;70045;40.200;44.582;2023-11-22T03:38:46;1.15;;;1.05;;
80681;SDS011;70045;40.200;44.582;2023-11-22T03:41:14;3.30;;;1.75;;
80681;SDS011;70045;40.200;44.582;2023-11-22T03:43:39;1.42;;;0.65;;
80681;SDS011;70045;40.200;44.582;2023-11-22T03:46:05;2.40;;;1.00;;
80681;SDS011;70045;40.200;44.582;2023-11-22T03:48:30;1.77;;;0.82;;
80681;SDS011;70045;40.200;44.582;2023-11-22T03:50:56;1.63;;;0.88;;
80681;SDS011;70045;40.200;44.582;2023-11-22T03:53:24;4.07;;;1.13;;
80681;SDS011;70045;40.200;44.582;2023-11-22T03:55:49;3.75;;;1.40;;
80681;SDS011;70045;40.200;44.582;2023-11-22T03:58:15;4.90;;;1.10;;
80681;SDS011;70045;40.200;44.582;2023-11-22T04:00:41;2.95;;;1.20;;
80681;SDS011;70045;40.200;44.582;2023-11-22T04:03:06;5.03;;;2.00;;
80681;SDS011;70045;40.200;44.582;2023-11-22T04:05:35;9.50;;;2.70;;
80681;SDS011;70045;40.200;44.582;2023-11-22T04:08:01;9.63;;;2.70;;
80681;SDS011;70045;40.200;44.582;2023-11-22T04:10:26;13.95;;;2.65;;
80681;SDS011;70045;40.200;44.582;2023-11-22T04:12:52;7.35;;;2.10;;
80681;SDS011;70045;40.200;44.582;2023-11-22T04:15:17;11.80;;;2.50;;
80681;SDS011;70045;40.200;44.582;2023-11-22T04:17:45;10.60;;;3.13;;
80681;SDS011;70045;40.200;44.582;2023-11-22T04:20:11;13.40;;;3.40;;
80681;SDS011;70045;40.200;44.582;2023-11-22T04:22:36;22.17;;;4.80;;
80681;SDS011;70045;40.200;44.582;2023-11-22T04:25:02;26.58;;;5.80;;
80681;SDS011;70045;40.200;44.582;2023-11-22T04:27:27;48.85;;;14.55;;
80681;SDS011;70045;40.200;44.582;2023-11-22T04:29:56;36.42;;;10.82;;
80681;SDS011;70045;40.200;44.582;2023-11-22T04:32:21;24.17;;;7.75;;
80681;SDS011;70045;40.200;44.582;2023-11-22T04:34:46;14.95;;;5.22;;
80681;SDS011;70045;40.200;44.582;2023-11-22T04:37:12;10.70;;;3.83;;
80681;SDS011;70045;40.200;44.582;2023-11-22T04:39:38;12.15;;;3.45;;
80681;SDS011;70045;40.200;44.582;2023-11-22T04:42:08;11.07;;;3.78;;
80681;SDS011;70045;40.200;44.582;2023-11-22T04:44:33;13.38;;;4.82;;
80681;SDS011;70045;40.200;44.582;2023-11-22T04:46:58;10.27;;;3.75;;
80681;SDS011;70045;40.200;44.582;2023-11-22T04:49:24;11.63;;;3.53;;
80681;SDS011;70045;40.200;44.582;2023-11-22T04:51:49;8.00;;;2.80;;
80681;SDS011;70045;40.200;44.582;2023-11-22T04:54:18;9.40;;;2.53;;
80681;SDS011;70045;40.200;44.582;2023-11-22T04:56:43;5.35;;;2.10;;
80681;SDS011;70045;40.200;44.582;2023-11-22T04:59:09;8.73;;;2.10;;
80681;SDS011;70045;40.200;44.582;2023-11-22T05:01:35;3.53;;;1.70;;
80681;SDS011;70045;40.200;44.582;2023-11-22T05:04:00;5.95;;;2.00;;
80681;SDS011;70045;40.200;44.582;2023-11-22T05:06:29;5.72;;;2.20;;
80681;SDS011;70045;40.200;44.582;2023-11-22T05:08:54;7.43;;;2.28;;
80681;SDS011;70045;40.200;44.582;2023-11-22T05:11:20;6.53;;;1.92;;
80681;SDS011;70045;40.200;44.582;2023-11-22T05:13:48;4.00;;;1.73;;
80681;SDS011;70045;40.200;44.582;2023-11-22T05:16:14;4.28;;;1.60;;
80681;SDS011;70045;40.200;44.582;2023-11-22T05:18:42;6.93;;;1.50;;
80681;SDS011;70045;40.200;44.582;2023-11-22T05:21:07;2.45;;;1.33;;
80681;SDS011;70045;40.200;44.582;2023-11-22T05:23:33;3.83;;;1.40;;
80681;SDS011;70045;40.200;44.582;2023-11-22T05:25:58;2.58;;;1.17;;
80681;SDS011;70045;40.200;44.582;2023-11-22T05:28:23;2.58;;;1.33;;
80681;SDS011;70045;40.200;44.582;2023-11-22T05:30:51;6.47;;;2.00;;
80681;SDS011;70045;40.200;44.582;2023-11-22T05:33:17;10.68;;;2.72;;
80681;SDS011;70045;40.200;44.582;2023-11-22T05:35:42;6.95;;;2.40;;
80681;SDS011;70045;40.200;44.582;2023-11-22T05:38:08;5.47;;;2.25;;
80681;SDS011;70045;40.200;44.582;2023-11-22T05:40:33;6.07;;;2.00;;
80681;SDS011;70045;40.200;44.582;2023-11-22T05:43:02;4.55;;;2.15;;
80681;SDS011;70045;40.200;44.582;2023-11-22T05:45:27;3.53;;;1.70;;
80681;SDS011;70045;40.200;44.582;2023-11-22T05:47:52;4.78;;;1.70;;
80681;SDS011;70045;40.200;44.582;2023-11-22T05:50:18;3.83;;;1.63;;
80681;SDS011;70045;40.200;44.582;2023-11-22T05:52:44;5.20;;;1.80;;
80681;SDS011;70045;40.200;44.582;2023-11-22T05:55:12;7.05;;;1.52;;
80681;SDS011;70045;40.200;44.582;2023-11-22T05:57:37;4.28;;;1.55;;
80681;SDS011;70045;40.200;44.582;2023-11-22T06:00:03;1.83;;;1.20;;
80681;SDS011;70045;40.200;44.582;2023-11-22T06:02:28;4.05;;;1.42;;
80681;SDS011;70045;40.200;44.582;2023-11-22T06:04:54;6.32;;;1.98;;
80681;SDS011;70045;40.200;44.582;2023-11-22T06:07:23;5.85;;;1.83;;
80681;SDS011;70045;40.200;44.582;2023-11-22T06:09:48;6.28;;;1.55;;
80681;SDS011;70045;40.200;44.582;2023-11-22T06:12:13;3.13;;;1.50;;
80681;SDS011;70045;40.200;44.582;2023-11-22T06:14:39;3.22;;;1.30;;
80681;SDS011;70045;40.200;44.582;2023-11-22T06:17:04;3.47;;;1.55;;
80681;SDS011;70045;40.200;44.582;2023-11-22T06:19:34;2.70;;;1.00;;
80681;SDS011;70045;40.200;44.582;2023-11-22T06:22:00;1.60;;;0.90;;
80681;SDS011;70045;40.200;44.582;2023-11-22T06:24:25;11.27;;;1.23;;
80681;SDS011;70045;40.200;44.582;2023-11-22T06:26:50;4.68;;;1.08;;
80681;SDS011;70045;40.200;44.582;2023-11-22T06:29:16;1.60;;;1.00;;
80681;SDS011;70045;40.200;44.582;2023-11-22T06:31:44;4.95;;;1.70;;
80681;SDS011;70045;40.200;44.582;2023-11-22T06:34:09;5.72;;;1.45;;
80681;SDS011;70045;40.200;44.582;2023-11-22T06:36:35;6.28;;;1.50;;
80681;SDS011;70045;40.200;44.582;2023-11-22T06:39:00;3.58;;;1.20;;
80681;SDS011;70045;40.200;44.582;2023-11-22T06:41:26;1.98;;;1.20;;
80681;SDS011;70045;40.200;44.582;2023-11-22T06:43:54;1.50;;;0.98;;
80681;SDS011;70045;40.200;44.582;2023-11-22T06:46:19;3.75;;;1.60;;
80681;SDS011;70045;40.200;44.582;2023-11-22T06:48:44;1.98;;;1.08;;
80681;SDS011;70045;40.200;44.582;2023-11-22T06:51:10;1.38;;;1.00;;
80681;SDS011;70045;40.200;44.582;2023-11-22T06:53:35;4.50;;;1.80;;
80681;SDS011;70045;40.200;44.582;2023-11-22T06:56:04;3.08;;;1.23;;
80681;SDS011;70045;40.200;44.582;2023-11-22T06:58:29;4.45;;;1.15;;
80681;SDS011;70045;40.200;44.582;2023-11-22T07:00:55;3.35;;;1.75;;
80681;SDS011;70045;40.200;44.582;2023-11-22T07:03:20;5.47;;;1.00;;
80681;SDS011;70045;40.200;44.582;2023-11-22T07:05:45;2.38;;;1.00;;
80681;SDS011;70045;40.200;44.582;2023-11-22T07:08:13;5.18;;;1.35;;
80681;SDS011;70045;40.200;44.582;2023-11-22T07:10:39;3.15;;;1.30;;
80681;SDS011;70045;40.200;44.582;2023-11-22T07:13:04;6.07;;;1.70;;
80681;SDS011;70045;40.200;44.582;2023-11-22T07:15:29;2.33;;;1.17;;
80681;SDS011;70045;40.200;44.582;2023-11-22T07:17:55;5.05;;;1.50;;
80681;SDS011;70045;40.200;44.582;2023-11-22T07:20:23;2.47;;;1.10;;
80681;SDS011;70045;40.200;44.582;2023-11-22T07:22:48;2.25;;;1.30;;
80681;SDS011;70045;40.200;44.582;2023-11-22T07:25:14;2.17;;;1.15;;
80681;SDS011;70045;40.200;44.582;2023-11-22T07:27:39;1.35;;;0.93;;
80681;SDS011;70045;40.200;44.582;2023-11-22T07:30:05;2.90;;;1.45;;
80681;SDS011;70045;40.200;44.582;2023-11-22T07:32:34;2.17;;;1.40;;
80681;SDS011;70045;40.200;44.582;2023-11-22T07:34:59;4.75;;;1.77;;
80681;SDS011;70045;40.200;44.582;2023-11-22T07:37:25;3.75;;;1.60;;
80681;SDS011;70045;40.200;44.582;2023-11-22T07:39:50;3.53;;;1.30;;
80681;SDS011;70045;40.200;44.582;2023-11-22T07:42:16;4.63;;;1.60;;
80681;SDS011;70045;40.200;44.582;2023-11-22T07:44:44;10.57;;;2.22;;
80681;SDS011;70045;40.200;44.582;2023-11-22T07:47:10;6.15;;;1.38;;
80681;SDS011;70045;40.200;44.582;2023-11-22T07:49:35;8.68;;;1.90;;
80681;SDS011;70045;40.200;44.582;2023-11-22T07:52:04;5.57;;;1.73;;
80681;SDS011;70045;40.200;44.582;2023-11-22T07:54:30;4.10;;;1.35;;
80681;SDS011;70045;40.200;44.582;2023-11-22T07:56:58;4.28;;;1.65;;
80681;SDS011;70045;40.200;44.582;2023-11-22T07:59:23;4.03;;;1.40;;
80681;SDS011;70045;40.200;44.582;2023-11-22T08:01:49;4.20;;;1.17;;
80681;SDS011;70045;40.200;44.582;2023-11-22T08:04:14;6.95;;;1.60;;
80681;SDS011;70045;40.200;44.582;2023-11-22T08:06:40;6.47;;;1.60;;
80681;SDS011;70045;40.200;44.582;2023-11-22T08:09:08;3.20;;;1.40;;
80681;SDS011;70045;40.200;44.582;2023-11-22T08:11:34;2.28;;;1.25;;
80681;SDS011;70045;40.200;44.582;2023-11-22T08:14:00;4.15;;;1.40;;
80681;SDS011;70045;40.200;44.582;2023-11-22T08:16:25;1.70;;;0.98;;
80681;SDS011;70045;40.200;44.582;2023-11-22T08:18:51;5.47;;;1.20;;
80681;SDS011;70045;40.200;44.582;2023-11-22T08:21:19;2.05;;;1.10;;
80681;SDS011;70045;40.200;44.582;2023-11-22T08:23:48;3.08;;;1.20;;
80681;SDS011;70045;40.200;44.582;2023-11-22T08:26:13;6.97;;;1.33;;
80681;SDS011;70045;40.200;44.582;2023-11-22T08:28:39;4.82;;;1.20;;
80681;SDS011;70045;40.200;44.582;2023-11-22T08:31:05;4.10;;;1.45;;
80681;SDS011;70045;40.200;44.582;2023-11-22T08:33:33;2.22;;;1.17;;
80681;SDS011;70045;40.200;44.582;2023-11-22T08:35:58;2.10;;;1.15;;
80681;SDS011;70045;40.200;44.582;2023-11-22T08:38:24;3.25;;;1.27;;
80681;SDS011;70045;40.200;44.582;2023-11-22T08:40:49;4.43;;;1.50;;
80681;SDS011;70045;40.200;44.582;2023-11-22T08:43:15;2.90;;;1.50;;
80681;SDS011;70045;40.200;44.582;2023-11-22T08:45:43;3.13;;;1.20;;
80681;SDS011;70045;40.200;44.582;2023-11-22T08:48:09;3.67;;;1.23;;
80681;SDS011;70045;40.200;44.582;2023-11-22T08:50:34;3.30;;;1.30;;
80681;SDS011;70045;40.200;44.582;2023-11-22T08:53:00;2.92;;;1.25;;
80681;SDS011;70045;40.200;44.582;2023-11-22T08:55:25;3.83;;;1.33;;
80681;SDS011;70045;40.200;44.582;2023-11-22T08:57:54;3.70;;;1.13;;
80681;SDS011;70045;40.200;44.582;2023-11-22T09:00:19;2.30;;;1.10;;
80681;SDS011;70045;40.200;44.582;2023-11-22T09:02:44;3.22;;;1.20;;
80681;SDS011;70045;40.200;44.582;2023-11-22T09:05:10;1.83;;;0.95;;
80681;SDS011;70045;40.200;44.582;2023-11-22T09:07:35;2.58;;;1.20;;
80681;SDS011;70045;40.200;44.582;2023-11-22T09:10:05;2.83;;;1.35;;
80681;SDS011;70045;40.200;44.582;2023-11-22T09:12:31;1.30;;;0.93;;
80681;SDS011;70045;40.200;44.582;2023-11-22T09:14:56;3.25;;;1.30;;
80681;SDS011;70045;40.200;44.582;2023-11-22T09:17:21;5.50;;;1.70;;
80681;SDS011;70045;40.200;44.582;2023-11-22T09:19:47;2.65;;;1.30;;
80681;SDS011;70045;40.200;44.582;2023-11-22T09:22:15;2.05;;;1.30;;
80681;SDS011;70045;40.200;44.582;2023-11-22T09:24:40;2.38;;;1.30;;
80681;SDS011;70045;40.200;44.582;2023-11-22T09:27:06;3.03;;;1.35;;
80681;SDS011;70045;40.200;44.582;2023-11-22T09:29:31;3.13;;;0.90;;
80681;SDS011;70045;40.200;44.582;2023-11-22T09:31:57;5.10;;;1.50;;
80681;SDS011;70045;40.200;44.582;2023-11-22T09:34:25;3.15;;;1.30;;
80681;SDS011;70045;40.200;44.582;2023-11-22T09:36:51;3.17;;;1.23;;
80681;SDS011;70045;40.200;44.582;2023-11-22T09:39:16;4.90;;;1.20;;
80681;SDS011;70045;40.200;44.582;2023-11-22T09:41:41;2.70;;;1.50;;
80681;SDS011;70045;40.200;44.582;2023-11-22T09:44:07;6.80;;;1.95;;
80681;SDS011;70045;40.200;44.582;2023-11-22T09:46:35;3.30;;;1.30;;
80681;SDS011;70045;40.200;44.582;2023-11-22T09:49:01;3.80;;;1.20;;
80681;SDS011;70045;40.200;44.582;2023-11-22T09:51:33;3.55;;;1.20;;
80681;SDS011;70045;40.200;44.582;2023-11-22T09:54:05;3.50;;;1.55;;
80681;SDS011;70045;40.200;44.582;2023-11-22T09:56:31;4.88;;;1.30;;
80681;SDS011;70045;40.200;44.582;2023-11-22T09:59:00;5.45;;;2.20;;
80681;SDS011;70045;40.200;44.582;2023-11-22T10:01:27;2.58;;;1.52;;
80681;SDS011;70045;40.200;44.582;2023-11-22T10:03:54;2.47;;;1.23;;
80681;SDS011;70045;40.200;44.582;2023-11-22T10:06:19;3.60;;;1.35;;
80681;SDS011;70045;40.200;44.582;2023-11-22T10:08:45;2.58;;;1.13;;
80681;SDS011;70045;40.200;44.582;2023-11-22T10:11:17;4.88;;;1.20;;
80681;SDS011;70045;40.200;44.582;2023-11-22T10:13:43;1.77;;;1.02;;
80681;SDS011;70045;40.200;44.582;2023-11-22T10:16:12;3.85;;;1.20;;
80681;SDS011;70045;40.200;44.582;2023-11-22T10:18:42;2.42;;;1.15;;
80681;SDS011;70045;40.200;44.582;2023-11-22T10:23:53;4.85;;;1.38;;
80681;SDS011;70045;40.200;44.582;2023-11-22T10:26:20;3.22;;;1.83;;
80681;SDS011;70045;40.200;44.582;2023-11-22T10:28:45;1.58;;;0.90;;
80681;SDS011;70045;40.200;44.582;2023-11-22T10:31:11;3.10;;;1.05;;
80681;SDS011;70045;40.200;44.582;2023-11-22T10:33:40;1.83;;;0.82;;
80681;SDS011;70045;40.200;44.582;2023-11-22T10:36:06;2.80;;;0.82;;
80681;SDS011;70045;40.200;44.582;2023-11-22T10:38:31;1.40;;;1.13;;
80681;SDS011;70045;40.200;44.582;2023-11-22T10:40:58;1.05;;;0.80;;
80681;SDS011;70045;40.200;44.582;2023-11-22T10:43:24;3.60;;;1.50;;
80681;SDS011;70045;40.200;44.582;2023-11-22T10:45:55;1.58;;;1.02;;
80681;SDS011;70045;40.200;44.582;2023-11-22T10:48:26;3.00;;;1.30;;
80681;SDS011;70045;40.200;44.582;2023-11-22T10:50:52;2.58;;;1.33;;
80681;SDS011;70045;40.200;44.582;2023-11-22T10:53:21;4.32;;;1.85;;
80681;SDS011;70045;40.200;44.582;2023-11-22T10:55:50;2.03;;;1.08;;
80681;SDS011;70045;40.200;44.582;2023-11-22T10:58:25;2.50;;;1.10;;
80681;SDS011;70045;40.200;44.582;2023-11-22T11:00:53;2.47;;;1.30;;
80681;SDS011;70045;40.200;44.582;2023-11-22T11:03:19;2.05;;;1.10;;
80681;SDS011;70045;40.200;44.582;2023-11-22T11:05:57;4.10;;;1.20;;
80681;SDS011;70045;40.200;44.582;2023-11-22T11:08:26;4.07;;;1.17;;
80681;SDS011;70045;40.200;44.582;2023-11-22T11:10:57;3.13;;;0.93;;
80681;SDS011;70045;40.200;44.582;2023-11-22T11:13:23;2.90;;;0.90;;
80681;SDS011;70045;40.200;44.582;2023-11-22T11:15:49;2.10;;;1.02;;
80681;SDS011;70045;40.200;44.582;2023-11-22T11:18:17;8.13;;;1.20;;
80681;SDS011;70045;40.200;44.582;2023-11-22T11:20:48;3.28;;;0.90;;
80681;SDS011;70045;40.200;44.582;2023-11-22T11:23:18;3.30;;;1.33;;
80681;SDS011;70045;40.200;44.582;2023-11-22T11:25:44;5.20;;;1.13;;
80681;SDS011;70045;40.200;44.582;2023-11-22T11:28:12;3.00;;;1.30;;
80681;SDS011;70045;40.200;44.582;2023-11-22T11:30:42;6.43;;;1.23;;
80681;SDS011;70045;40.200;44.582;2023-11-22T11:33:13;7.40;;;1.42;;
80681;SDS011;70045;40.200;44.582;2023-11-22T11:35:43;4.15;;;1.23;;
80681;SDS011;70045;40.200;44.582;2023-11-22T11:38:11;2.88;;;0.93;;
80681;SDS011;70045;40.200;44.582;2023-11-22T11:40:37;2.47;;;1.10;;
80681;SDS011;70045;40.200;44.582;2023-11-22T11:43:04;1.75;;;0.90;;
80681;SDS011;70045;40.200;44.582;2023-11-22T11:45:39;2.60;;;1.40;;
80681;SDS011;70045;40.200;44.582;2023-11-22T11:48:06;3.70;;;1.30;;
80681;SDS011;70045;40.200;44.582;2023-11-22T11:50:32;3.55;;;1.30;;
80681;SDS011;70045;40.200;44.582;2023-11-22T11:52:57;1.42;;;1.25;;
80681;SDS011;70045;40.200;44.582;2023-11-22T11:55:23;3.13;;;1.05;;
80681;SDS011;70045;40.200;44.582;2023-11-22T11:57:53;4.10;;;1.15;;
80681;SDS011;70045;40.200;44.582;2023-11-22T12:00:19;2.53;;;1.30;;
80681;SDS011;70045;40.200;44.582;2023-11-22T12:02:45;1.17;;;1.08;;
80681;SDS011;70045;40.200;44.582;2023-11-22T12:05:10;3.05;;;1.17;;
80681;SDS011;70045;40.200;44.582;2023-11-22T12:07:36;5.47;;;2.30;;
80681;SDS011;70045;40.200;44.582;2023-11-22T12:10:05;5.90;;;2.22;;
80681;SDS011;70045;40.200;44.582;2023-11-22T12:12:30;7.47;;;1.50;;
80681;SDS011;70045;40.200;44.582;2023-11-22T12:14:56;3.83;;;1.33;;
80681;SDS011;70045;40.200;44.582;2023-11-22T12:17:22;8.30;;;1.50;;
80681;SDS011;70045;40.200;44.582;2023-11-22T12:19:47;4.18;;;1.42;;
80681;SDS011;70045;40.200;44.582;2023-11-22T12:22:16;4.53;;;1.27;;
80681;SDS011;70045;40.200;44.582;2023-11-22T12:24:42;6.65;;;1.50;;
80681;SDS011;70045;40.200;44.582;2023-11-22T12:27:09;4.50;;;1.48;;
80681;SDS011;70045;40.200;44.582;2023-11-22T12:29:38;7.35;;;1.98;;
80681;SDS011;70045;40.200;44.582;2023-11-22T12:32:05;3.50;;;1.50;;
80681;SDS011;70045;40.200;44.582;2023-11-22T12:34:33;8.55;;;1.98;;
80681;SDS011;70045;40.200;44.582;2023-11-22T12:36:58;4.80;;;1.30;;
80681;SDS011;70045;40.200;44.582;2023-11-22T12:39:25;6.55;;;1.30;;
80681;SDS011;70045;40.200;44.582;2023-11-22T12:41:51;7.40;;;1.35;;
80681;SDS011;70045;40.200;44.582;2023-11-22T12:44:18;4.30;;;1.30;;
80681;SDS011;70045;40.200;44.582;2023-11-22T12:46:47;5.38;;;1.45;;
80681;SDS011;70045;40.200;44.582;2023-11-22T12:49:16;5.75;;;1.40;;
80681;SDS011;70045;40.200;44.582;2023-11-22T12:51:46;3.28;;;1.63;;
80681;SDS011;70045;40.200;44.582;2023-11-22T12:56:37;10.03;;;2.27;;
80681;SDS011;70045;40.200;44.582;2023-11-22T12:59:05;3.40;;;1.45;;
80681;SDS011;70045;40.200;44.582;2023-11-22T13:01:31;6.43;;;1.63;;
80681;SDS011;70045;40.200;44.582;2023-11-22T13:03:56;1.58;;;0.90;;
80681;SDS011;70045;40.200;44.582;2023-11-22T13:06:22;5.70;;;1.30;;
80681;SDS011;70045;40.200;44.582;2023-11-22T13:08:47;3.03;;;1.25;;
80681;SDS011;70045;40.200;44.582;2023-11-22T13:11:15;3.50;;;1.45;;
80681;SDS011;70045;40.200;44.582;2023-11-22T13:13:41;3.35;;;1.60;;
80681;SDS011;70045;40.200;44.582;2023-11-22T13:16:06;3.85;;;1.10;;
80681;SDS011;70045;40.200;44.582;2023-11-22T13:18:31;3.03;;;1.50;;
80681;SDS011;70045;40.200;44.582;2023-11-22T13:20:57;2.53;;;1.08;;
80681;SDS011;70045;40.200;44.582;2023-11-22T13:23:25;2.53;;;1.08;;
80681;SDS011;70045;40.200;44.582;2023-11-22T13:25:50;4.10;;;0.98;;
80681;SDS011;70045;40.200;44.582;2023-11-22T13:28:16;2.47;;;1.25;;
80681;SDS011;70045;40.200;44.582;2023-11-22T13:30:41;3.95;;;1.27;;
80681;SDS011;70045;40.200;44.582;2023-11-22T13:33:06;5.32;;;1.58;;
80681;SDS011;70045;40.200;44.582;2023-11-22T13:35:34;6.50;;;1.77;;
80681;SDS011;70045;40.200;44.582;2023-11-22T13:38:00;4.95;;;1.58;;
80681;SDS011;70045;40.200;44.582;2023-11-22T13:40:26;4.22;;;1.77;;
80681;SDS011;70045;40.200;44.582;2023-11-22T13:42:51;6.32;;;1.70;;
80681;SDS011;70045;40.200;44.582;2023-11-22T13:45:17;7.25;;;1.63;;
80681;SDS011;70045;40.200;44.582;2023-11-22T13:47:46;5.07;;;1.67;;
80681;SDS011;70045;40.200;44.582;2023-11-22T13:50:16;8.15;;;1.95;;
80681;SDS011;70045;40.200;44.582;2023-11-22T13:52:42;6.20;;;1.75;;
80681;SDS011;70045;40.200;44.582;2023-11-22T13:55:08;7.78;;;2.35;;
80681;SDS011;70045;40.200;44.582;2023-11-22T13:57:33;8.25;;;2.35;;
80681;SDS011;70045;40.200;44.582;2023-11-22T14:00:05;6.15;;;2.35;;
80681;SDS011;70045;40.200;44.582;2023-11-22T14:02:31;11.93;;;3.30;;
80681;SDS011;70045;40.200;44.582;2023-11-22T14:04:57;11.02;;;3.38;;
80681;SDS011;70045;40.200;44.582;2023-11-22T14:07:22;11.23;;;3.38;;
80681;SDS011;70045;40.200;44.582;2023-11-22T14:09:47;13.27;;;3.83;;
80681;SDS011;70045;40.200;44.582;2023-11-22T14:12:15;13.45;;;3.70;;
80681;SDS011;70045;40.200;44.582;2023-11-22T14:14:41;13.98;;;3.90;;
80681;SDS011;70045;40.200;44.582;2023-11-22T14:17:06;14.02;;;3.50;;
80681;SDS011;70045;40.200;44.582;2023-11-22T14:19:31;14.60;;;3.50;;
80681;SDS011;70045;40.200;44.582;2023-11-22T14:21:57;15.88;;;3.85;;
80681;SDS011;70045;40.200;44.582;2023-11-22T14:24:25;10.85;;;3.92;;
80681;SDS011;70045;40.200;44.582;2023-11-22T14:26:50;19.73;;;5.55;;
80681;SDS011;70045;40.200;44.582;2023-11-22T14:29:16;13.40;;;3.63;;
80681;SDS011;70045;40.200;44.582;2023-11-22T14:31:41;12.52;;;3.97;;
80681;SDS011;70045;40.200;44.582;2023-11-22T14:34:06;16.70;;;3.22;;